Gentle Leader — C6WY9 — position and weather

sailwx.info

Track history (hours):
 
Tides and Currents Weather Stations Pressure Air Temp Water Temp Dewpoint Dewpoint Depression Visibility Wind Speed Wind Dir Waves Ship Positions

Gentle Leader

Last reported at 2016-Nov-28 15:23 UTC. Time now 2016-Dec-03 19:49 UTC.
Position N 09°13' W 079°56'.

Length 200 m; draft 8.9 m.

Type: Cargo ship. MMSI: 311003300.

Date/timePositionNaut miles runAvg speedWind from/ knotsBaromVisibWave heightAir tempDewpointWater temp
2016-Nov-28 15:23N 09°13' W 079°56'0 0.1
2016-Nov-28 13:33N 09°13' W 079°56'3 3.4
2016-Nov-28 12:32N 09°16' W 079°55'0 0.4
2016-Nov-28 11:31N 09°17' W 079°55'1 1.5
2016-Nov-28 10:33N 09°18' W 079°55'5 5.1
2016-Nov-28 09:33N 09°23' W 079°55'3 3.2
2016-Nov-28 08:31N 09°26' W 079°56'0 0.1
2016-Nov-28 07:31N 09°26' W 079°56'0 0.0
2016-Nov-28 06:22N 09°26' W 079°56'0 0.1
2016-Nov-28 05:28N 09°26' W 079°56'4 4.9
2016-Nov-28 04:33N 09°22' W 079°54'1 0.7
2016-Nov-28 03:33N 09°22' W 079°53'0 0.0
2016-Nov-28 02:33N 09°22' W 079°53'0 0.0
2016-Nov-28 01:33N 09°22' W 079°53'0 0.0
2016-Nov-28 00:33N 09°22' W 079°53'0 0.0
2016-Nov-27 23:33N 09°22' W 079°53'0 0.0
2016-Nov-27 22:33N 09°22' W 079°53'0 0.0
2016-Nov-27 21:33N 09°22' W 079°53'0 0.0
2016-Nov-27 20:33N 09°22' W 079°53'0 0.0
2016-Nov-27 19:33N 09°22' W 079°53'1 0.5
2016-Nov-27 18:33N 09°22' W 079°54'3 3.0
2016-Nov-27 17:33N 09°25' W 079°53'  
2016-Nov-19 01:11N 38°09' W 031°43'1115.8
2016-Nov-19 00:28N 38°14' W 031°31'1415.7
2016-Nov-18 23:33N 38°22' W 031°15'4816.0
2016-Nov-18 20:33N 38°47' W 030°23'3216.2
2016-Nov-18 18:34N 39°03' W 029°47'1615.7
2016-Nov-18 17:33N 39°11' W 029°30'  
Track history (hours):
 
Tides and Currents Weather Stations Pressure Air Temp Water Temp Dewpoint Dewpoint Depression Visibility Wind Speed Wind Dir Waves Ship Positions

Gentle Leader

Last reported at 2016-Nov-28 15:23 UTC. Time now 2016-Dec-03 19:49 UTC.
Position N 09°13' W 079°56'.

Length 200 m; draft 8.9 m.

Type: Cargo ship. MMSI: 311003300.

Date/timePositionNaut miles runAvg speedWind from/ knotsBaromVisibWave heightAir tempDewpointWater temp
2016-Nov-28 15:23N 09°13' W 079°56'0 0.1
2016-Nov-28 13:33N 09°13' W 079°56'3 3.4
2016-Nov-28 12:32N 09°16' W 079°55'0 0.4
2016-Nov-28 11:31N 09°17' W 079°55'1 1.5
2016-Nov-28 10:33N 09°18' W 079°55'5 5.1
2016-Nov-28 09:33N 09°23' W 079°55'3 3.2
2016-Nov-28 08:31N 09°26' W 079°56'0 0.1
2016-Nov-28 07:31N 09°26' W 079°56'0 0.0
2016-Nov-28 06:22N 09°26' W 079°56'0 0.1
2016-Nov-28 05:28N 09°26' W 079°56'4 4.9
2016-Nov-28 04:33N 09°22' W 079°54'1 0.7
2016-Nov-28 03:33N 09°22' W 079°53'0 0.0
2016-Nov-28 02:33N 09°22' W 079°53'0 0.0
2016-Nov-28 01:33N 09°22' W 079°53'0 0.0
2016-Nov-28 00:33N 09°22' W 079°53'0 0.0
2016-Nov-27 23:33N 09°22' W 079°53'0 0.0
2016-Nov-27 22:33N 09°22' W 079°53'0 0.0
2016-Nov-27 21:33N 09°22' W 079°53'0 0.0
2016-Nov-27 20:33N 09°22' W 079°53'0 0.0
2016-Nov-27 19:33N 09°22' W 079°53'1 0.5
2016-Nov-27 18:33N 09°22' W 079°54'3 3.0
2016-Nov-27 17:33N 09°25' W 079°53'  
2016-Nov-19 01:11N 38°09' W 031°43'1115.8
2016-Nov-19 00:28N 38°14' W 031°31'1415.7
2016-Nov-18 23:33N 38°22' W 031°15'4816.0
2016-Nov-18 20:33N 38°47' W 030°23'3216.2
2016-Nov-18 18:34N 39°03' W 029°47'1615.7
2016-Nov-18 17:33N 39°11' W 029°30'  

Dump ship's entire track history